sensor_id;sensor_type;location;lat;lon;timestamp;temperature;humidity
52245;DHT22;55759;51.586;-1.758;2023-12-07T00:02:28;5.60;89.70
52245;DHT22;55759;51.586;-1.758;2023-12-07T00:08:12;5.70;89.50
52245;DHT22;55759;51.586;-1.758;2023-12-07T00:20:27;5.60;89.80
52245;DHT22;55759;51.586;-1.758;2023-12-07T00:35:45;5.70;90.00
52245;DHT22;55759;51.586;-1.758;2023-12-07T00:50:18;5.80;89.90
52245;DHT22;55759;51.586;-1.758;2023-12-07T00:52:56;5.80;89.90
52245;DHT22;55759;51.586;-1.758;2023-12-07T00:55:49;5.80;90.00
52245;DHT22;55759;51.586;-1.758;2023-12-07T00:58:34;5.90;89.90
52245;DHT22;55759;51.586;-1.758;2023-12-07T01:01:27;5.90;89.70
52245;DHT22;55759;51.586;-1.758;2023-12-07T01:16:33;6.10;90.10
52245;DHT22;55759;51.586;-1.758;2023-12-07T01:19:40;6.10;90.30
52245;DHT22;55759;51.586;-1.758;2023-12-07T01:22:25;6.10;90.30
52245;DHT22;55759;51.586;-1.758;2023-12-07T01:27:57;6.10;90.60
52245;DHT22;55759;51.586;-1.758;2023-12-07T01:30:30;6.20;90.50
52245;DHT22;55759;51.586;-1.758;2023-12-07T01:33:18;6.20;90.50
52245;DHT22;55759;51.586;-1.758;2023-12-07T01:45:27;6.30;90.50
52245;DHT22;55759;51.586;-1.758;2023-12-07T01:48:13;6.30;90.60
52245;DHT22;55759;51.586;-1.758;2023-12-07T01:50:41;6.30;90.60
52245;DHT22;55759;51.586;-1.758;2023-12-07T01:53:27;6.40;90.50
52245;DHT22;55759;51.586;-1.758;2023-12-07T01:56:10;6.40;90.60
52245;DHT22;55759;51.586;-1.758;2023-12-07T01:58:46;6.30;90.80
52245;DHT22;55759;51.586;-1.758;2023-12-07T02:01:31;6.30;90.90
52245;DHT22;55759;51.586;-1.758;2023-12-07T02:04:16;6.30;91.10
52245;DHT22;55759;51.586;-1.758;2023-12-07T02:09:53;6.20;91.30
52245;DHT22;55759;51.586;-1.758;2023-12-07T02:12:32;6.20;91.50
52245;DHT22;55759;51.586;-1.758;2023-12-07T02:15:08;6.30;91.60
52245;DHT22;55759;51.586;-1.758;2023-12-07T02:23:32;6.20;91.90
52245;DHT22;55759;51.586;-1.758;2023-12-07T02:29:21;6.20;91.90
52245;DHT22;55759;51.586;-1.758;2023-12-07T02:35:24;6.20;92.00
52245;DHT22;55759;51.586;-1.758;2023-12-07T02:44:14;6.30;92.20
52245;DHT22;55759;51.586;-1.758;2023-12-07T02:55:42;6.30;92.40
52245;DHT22;55759;51.586;-1.758;2023-12-07T02:58:14;6.30;92.50
52245;DHT22;55759;51.586;-1.758;2023-12-07T03:03:37;6.40;92.60
52245;DHT22;55759;51.586;-1.758;2023-12-07T03:06:06;6.40;92.60
52245;DHT22;55759;51.586;-1.758;2023-12-07T03:08:47;6.30;92.50
52245;DHT22;55759;51.586;-1.758;2023-12-07T03:11:21;6.40;92.60
52245;DHT22;55759;51.586;-1.758;2023-12-07T03:13:53;6.40;92.60
52245;DHT22;55759;51.586;-1.758;2023-12-07T03:16:21;6.30;92.50
52245;DHT22;55759;51.586;-1.758;2023-12-07T03:18:49;6.40;92.60
52245;DHT22;55759;51.586;-1.758;2023-12-07T03:21:38;6.40;92.60
52245;DHT22;55759;51.586;-1.758;2023-12-07T03:24:09;6.40;92.60
52245;DHT22;55759;51.586;-1.758;2023-12-07T03:26:36;6.40;92.60
52245;DHT22;55759;51.586;-1.758;2023-12-07T03:29:01;6.40;92.60
52245;DHT22;55759;51.586;-1.758;2023-12-07T03:31:27;6.40;92.60
52245;DHT22;55759;51.586;-1.758;2023-12-07T03:33:56;6.40;92.50
52245;DHT22;55759;51.586;-1.758;2023-12-07T03:36:25;6.40;92.60
52245;DHT22;55759;51.586;-1.758;2023-12-07T03:42:00;6.40;92.70
52245;DHT22;55759;51.586;-1.758;2023-12-07T03:44:35;6.40;92.70
52245;DHT22;55759;51.586;-1.758;2023-12-07T03:47:11;6.50;92.80
52245;DHT22;55759;51.586;-1.758;2023-12-07T03:49:39;6.50;92.80
52245;DHT22;55759;51.586;-1.758;2023-12-07T03:52:14;6.50;92.90
52245;DHT22;55759;51.586;-1.758;2023-12-07T03:54:44;6.60;92.90
52245;DHT22;55759;51.586;-1.758;2023-12-07T03:57:12;6.60;92.90
52245;DHT22;55759;51.586;-1.758;2023-12-07T03:59:45;6.60;92.90
52245;DHT22;55759;51.586;-1.758;2023-12-07T04:02:13;6.60;92.90
52245;DHT22;55759;51.586;-1.758;2023-12-07T04:04:44;6.60;92.80
52245;DHT22;55759;51.586;-1.758;2023-12-07T04:07:09;6.70;92.80
52245;DHT22;55759;51.586;-1.758;2023-12-07T04:09:35;6.70;92.80
52245;DHT22;55759;51.586;-1.758;2023-12-07T04:12:03;6.70;92.80
52245;DHT22;55759;51.586;-1.758;2023-12-07T04:14:50;6.70;92.80
52245;DHT22;55759;51.586;-1.758;2023-12-07T04:17:18;6.70;92.80
52245;DHT22;55759;51.586;-1.758;2023-12-07T04:22:39;6.80;92.80
52245;DHT22;55759;51.586;-1.758;2023-12-07T04:25:12;6.80;92.80
52245;DHT22;55759;51.586;-1.758;2023-12-07T04:27:41;6.80;92.90
52245;DHT22;55759;51.586;-1.758;2023-12-07T04:30:18;6.90;92.90
52245;DHT22;55759;51.586;-1.758;2023-12-07T04:32:58;6.90;92.90
52245;DHT22;55759;51.586;-1.758;2023-12-07T04:35:31;6.90;92.90
52245;DHT22;55759;51.586;-1.758;2023-12-07T04:37:57;6.90;92.90
52245;DHT22;55759;51.586;-1.758;2023-12-07T04:40:49;6.90;92.90
52245;DHT22;55759;51.586;-1.758;2023-12-07T04:43:41;7.00;92.90
52245;DHT22;55759;51.586;-1.758;2023-12-07T04:46:30;7.00;92.90
52245;DHT22;55759;51.586;-1.758;2023-12-07T04:48:58;7.00;92.90
52245;DHT22;55759;51.586;-1.758;2023-12-07T04:51:24;7.10;92.90
52245;DHT22;55759;51.586;-1.758;2023-12-07T04:53:52;7.10;92.90
52245;DHT22;55759;51.586;-1.758;2023-12-07T04:56:18;7.10;92.80
52245;DHT22;55759;51.586;-1.758;2023-12-07T04:58:44;7.10;92.80
52245;DHT22;55759;51.586;-1.758;2023-12-07T05:01:19;7.10;92.70
52245;DHT22;55759;51.586;-1.758;2023-12-07T05:03:47;7.10;92.70
52245;DHT22;55759;51.586;-1.758;2023-12-07T05:06:13;7.20;92.70
52245;DHT22;55759;51.586;-1.758;2023-12-07T05:08:44;7.20;92.70
52245;DHT22;55759;51.586;-1.758;2023-12-07T05:11:19;7.20;92.70
52245;DHT22;55759;51.586;-1.758;2023-12-07T05:13:45;7.10;92.70
52245;DHT22;55759;51.586;-1.758;2023-12-07T05:16:11;7.10;92.70
52245;DHT22;55759;51.586;-1.758;2023-12-07T05:18:36;7.20;92.80
52245;DHT22;55759;51.586;-1.758;2023-12-07T05:21:04;7.20;92.70
52245;DHT22;55759;51.586;-1.758;2023-12-07T05:23:39;7.20;92.70
52245;DHT22;55759;51.586;-1.758;2023-12-07T05:26:19;7.30;92.70
52245;DHT22;55759;51.586;-1.758;2023-12-07T05:28:46;7.20;92.70
52245;DHT22;55759;51.586;-1.758;2023-12-07T05:31:18;7.30;92.60
52245;DHT22;55759;51.586;-1.758;2023-12-07T05:33:46;7.30;92.60
52245;DHT22;55759;51.586;-1.758;2023-12-07T05:36:17;7.30;92.60
52245;DHT22;55759;51.586;-1.758;2023-12-07T05:38:45;7.30;92.60
52245;DHT22;55759;51.586;-1.758;2023-12-07T05:41:11;7.40;92.50
52245;DHT22;55759;51.586;-1.758;2023-12-07T05:43:41;7.40;92.50
52245;DHT22;55759;51.586;-1.758;2023-12-07T05:46:07;7.30;92.40
52245;DHT22;55759;51.586;-1.758;2023-12-07T05:48:35;7.40;92.50
52245;DHT22;55759;51.586;-1.758;2023-12-07T05:51:02;7.40;92.50
52245;DHT22;55759;51.586;-1.758;2023-12-07T05:53:28;7.40;92.50
52245;DHT22;55759;51.586;-1.758;2023-12-07T05:55:56;7.30;92.50
52245;DHT22;55759;51.586;-1.758;2023-12-07T05:58:22;7.30;92.60
52245;DHT22;55759;51.586;-1.758;2023-12-07T06:00:48;7.30;92.50
52245;DHT22;55759;51.586;-1.758;2023-12-07T06:03:13;7.30;92.50
52245;DHT22;55759;51.586;-1.758;2023-12-07T06:05:40;7.30;92.60
52245;DHT22;55759;51.586;-1.758;2023-12-07T06:08:11;7.30;92.50
52245;DHT22;55759;51.586;-1.758;2023-12-07T06:10:39;7.30;92.60
52245;DHT22;55759;51.586;-1.758;2023-12-07T06:13:07;7.30;92.60
52245;DHT22;55759;51.586;-1.758;2023-12-07T06:15:35;7.30;92.60
52245;DHT22;55759;51.586;-1.758;2023-12-07T06:18:06;7.30;92.60
52245;DHT22;55759;51.586;-1.758;2023-12-07T06:20:32;7.30;92.60
52245;DHT22;55759;51.586;-1.758;2023-12-07T06:23:00;7.40;92.60
52245;DHT22;55759;51.586;-1.758;2023-12-07T06:25:27;7.40;92.50
52245;DHT22;55759;51.586;-1.758;2023-12-07T06:27:55;7.40;92.40
52245;DHT22;55759;51.586;-1.758;2023-12-07T06:30:32;7.30;92.30
52245;DHT22;55759;51.586;-1.758;2023-12-07T06:33:00;7.40;92.30
52245;DHT22;55759;51.586;-1.758;2023-12-07T06:35:28;7.30;92.30
52245;DHT22;55759;51.586;-1.758;2023-12-07T06:38:00;7.40;92.20
52245;DHT22;55759;51.586;-1.758;2023-12-07T06:40:26;7.30;92.10
52245;DHT22;55759;51.586;-1.758;2023-12-07T06:42:56;7.40;92.10
52245;DHT22;55759;51.586;-1.758;2023-12-07T06:45:39;7.40;92.10
52245;DHT22;55759;51.586;-1.758;2023-12-07T06:48:08;7.40;92.10
52245;DHT22;55759;51.586;-1.758;2023-12-07T06:50:44;7.40;92.10
52245;DHT22;55759;51.586;-1.758;2023-12-07T06:53:13;7.40;92.10
52245;DHT22;55759;51.586;-1.758;2023-12-07T06:55:39;7.40;92.00
52245;DHT22;55759;51.586;-1.758;2023-12-07T06:58:14;7.40;92.00
52245;DHT22;55759;51.586;-1.758;2023-12-07T07:00:51;7.40;91.90
52245;DHT22;55759;51.586;-1.758;2023-12-07T07:03:17;7.40;91.90
52245;DHT22;55759;51.586;-1.758;2023-12-07T07:05:48;7.40;91.90
52245;DHT22;55759;51.586;-1.758;2023-12-07T07:08:13;7.50;91.90
52245;DHT22;55759;51.586;-1.758;2023-12-07T07:13:48;7.40;91.70
52245;DHT22;55759;51.586;-1.758;2023-12-07T07:16:26;7.50;91.70
52245;DHT22;55759;51.586;-1.758;2023-12-07T07:19:15;7.50;91.60
52245;DHT22;55759;51.586;-1.758;2023-12-07T07:30:55;7.50;91.50
52245;DHT22;55759;51.586;-1.758;2023-12-07T07:36:43;7.60;91.30
52245;DHT22;55759;51.586;-1.758;2023-12-07T07:39:29;7.60;91.30
52245;DHT22;55759;51.586;-1.758;2023-12-07T08:01:03;7.60;91.00
52245;DHT22;55759;51.586;-1.758;2023-12-07T08:06:55;7.60;90.80
52245;DHT22;55759;51.586;-1.758;2023-12-07T08:09:49;7.60;90.80
52245;DHT22;55759;51.586;-1.758;2023-12-07T08:15:29;7.60;90.80
52245;DHT22;55759;51.586;-1.758;2023-12-07T08:18:37;7.60;90.80
52245;DHT22;55759;51.586;-1.758;2023-12-07T08:21:21;7.60;90.80
52245;DHT22;55759;51.586;-1.758;2023-12-07T08:24:07;7.60;90.90
52245;DHT22;55759;51.586;-1.758;2023-12-07T08:26:33;7.60;90.70
52245;DHT22;55759;51.586;-1.758;2023-12-07T08:29:02;7.60;90.70
52245;DHT22;55759;51.586;-1.758;2023-12-07T08:31:28;7.60;90.70
52245;DHT22;55759;51.586;-1.758;2023-12-07T08:33:56;7.60;90.60
52245;DHT22;55759;51.586;-1.758;2023-12-07T08:36:26;7.60;90.50
52245;DHT22;55759;51.586;-1.758;2023-12-07T08:38:54;7.60;90.30
52245;DHT22;55759;51.586;-1.758;2023-12-07T08:41:29;7.60;90.20
52245;DHT22;55759;51.586;-1.758;2023-12-07T08:44:20;7.50;90.20
52245;DHT22;55759;51.586;-1.758;2023-12-07T08:49:58;7.60;90.00
52245;DHT22;55759;51.586;-1.758;2023-12-07T08:52:26;7.50;89.80
52245;DHT22;55759;51.586;-1.758;2023-12-07T09:00:52;7.60;89.70
52245;DHT22;55759;51.586;-1.758;2023-12-07T09:07:15;7.60;89.50
52245;DHT22;55759;51.586;-1.758;2023-12-07T09:16:05;7.70;88.70
52245;DHT22;55759;51.586;-1.758;2023-12-07T09:18:42;7.70;88.60
52245;DHT22;55759;51.586;-1.758;2023-12-07T09:27:57;7.70;88.10
52245;DHT22;55759;51.586;-1.758;2023-12-07T09:46:06;7.70;87.70
52245;DHT22;55759;51.586;-1.758;2023-12-07T09:52:08;7.70;87.90
52245;DHT22;55759;51.586;-1.758;2023-12-07T10:00:57;7.70;87.80
52245;DHT22;55759;51.586;-1.758;2023-12-07T10:03:39;7.60;87.80
52245;DHT22;55759;51.586;-1.758;2023-12-07T10:06:15;7.60;87.60
52245;DHT22;55759;51.586;-1.758;2023-12-07T10:12:01;7.60;87.00
52245;DHT22;55759;51.586;-1.758;2023-12-07T10:14:33;7.70;86.80
52245;DHT22;55759;51.586;-1.758;2023-12-07T10:20:15;7.70;86.80
52245;DHT22;55759;51.586;-1.758;2023-12-07T10:25:59;7.60;86.40
52245;DHT22;55759;51.586;-1.758;2023-12-07T10:28:48;7.60;85.90
52245;DHT22;55759;51.586;-1.758;2023-12-07T10:31:21;7.60;86.00
52245;DHT22;55759;51.586;-1.758;2023-12-07T10:34:12;7.60;85.80
52245;DHT22;55759;51.586;-1.758;2023-12-07T10:37:01;7.60;85.80
52245;DHT22;55759;51.586;-1.758;2023-12-07T10:55:06;7.50;85.40
52245;DHT22;55759;51.586;-1.758;2023-12-07T10:57:50;7.50;85.50
52245;DHT22;55759;51.586;-1.758;2023-12-07T11:00:59;7.50;85.70
52245;DHT22;55759;51.586;-1.758;2023-12-07T11:34:33;7.70;86.00
52245;DHT22;55759;51.586;-1.758;2023-12-07T12:01:21;7.70;87.50
52245;DHT22;55759;51.586;-1.758;2023-12-07T12:03:58;7.50;88.00
52245;DHT22;55759;51.586;-1.758;2023-12-07T12:06:51;7.50;88.60
52245;DHT22;55759;51.586;-1.758;2023-12-07T12:09:38;7.40;88.80
52245;DHT22;55759;51.586;-1.758;2023-12-07T12:12:09;7.30;89.20
52245;DHT22;55759;51.586;-1.758;2023-12-07T12:14:43;7.20;89.70
52245;DHT22;55759;51.586;-1.758;2023-12-07T12:17:27;7.20;90.20
52245;DHT22;55759;51.586;-1.758;2023-12-07T12:19:52;7.20;90.30
52245;DHT22;55759;51.586;-1.758;2023-12-07T12:22:20;7.10;90.40
52245;DHT22;55759;51.586;-1.758;2023-12-07T12:24:49;7.10;90.50
52245;DHT22;55759;51.586;-1.758;2023-12-07T12:27:14;7.00;90.70
52245;DHT22;55759;51.586;-1.758;2023-12-07T12:29:41;7.00;91.10
52245;DHT22;55759;51.586;-1.758;2023-12-07T12:32:10;7.10;91.10
52245;DHT22;55759;51.586;-1.758;2023-12-07T12:34:36;7.00;91.10
52245;DHT22;55759;51.586;-1.758;2023-12-07T12:37:02;7.00;91.30
52245;DHT22;55759;51.586;-1.758;2023-12-07T12:39:30;7.10;91.30
52245;DHT22;55759;51.586;-1.758;2023-12-07T12:41:57;7.00;91.20
52245;DHT22;55759;51.586;-1.758;2023-12-07T12:44:24;7.00;91.40
52245;DHT22;55759;51.586;-1.758;2023-12-07T12:46:53;7.00;91.40
52245;DHT22;55759;51.586;-1.758;2023-12-07T12:49:18;6.90;91.40
52245;DHT22;55759;51.586;-1.758;2023-12-07T12:51:44;7.00;91.60
52245;DHT22;55759;51.586;-1.758;2023-12-07T12:54:10;7.00;91.70
52245;DHT22;55759;51.586;-1.758;2023-12-07T12:56:36;7.00;91.70
52245;DHT22;55759;51.586;-1.758;2023-12-07T12:59:20;7.00;91.50
52245;DHT22;55759;51.586;-1.758;2023-12-07T13:01:53;7.00;91.60
52245;DHT22;55759;51.586;-1.758;2023-12-07T13:04:19;6.90;91.60
52245;DHT22;55759;51.586;-1.758;2023-12-07T13:06:45;6.90;91.50
52245;DHT22;55759;51.586;-1.758;2023-12-07T13:09:10;6.90;91.60
52245;DHT22;55759;51.586;-1.758;2023-12-07T13:11:36;6.90;91.60
52245;DHT22;55759;51.586;-1.758;2023-12-07T13:14:06;6.90;91.50
52245;DHT22;55759;51.586;-1.758;2023-12-07T13:19:26;6.90;91.50
52245;DHT22;55759;51.586;-1.758;2023-12-07T13:21:55;6.80;91.40
52245;DHT22;55759;51.586;-1.758;2023-12-07T13:24:21;6.90;91.40
52245;DHT22;55759;51.586;-1.758;2023-12-07T13:26:49;6.80;91.40
52245;DHT22;55759;51.586;-1.758;2023-12-07T13:29:15;6.80;91.30
52245;DHT22;55759;51.586;-1.758;2023-12-07T13:31:41;6.80;91.30
52245;DHT22;55759;51.586;-1.758;2023-12-07T13:34:07;6.90;91.40
52245;DHT22;55759;51.586;-1.758;2023-12-07T13:36:35;6.80;91.20
52245;DHT22;55759;51.586;-1.758;2023-12-07T13:39:01;6.80;91.30
52245;DHT22;55759;51.586;-1.758;2023-12-07T13:41:30;6.90;91.50
52245;DHT22;55759;51.586;-1.758;2023-12-07T13:46:54;6.90;91.20
52245;DHT22;55759;51.586;-1.758;2023-12-07T13:49:33;6.90;91.00
52245;DHT22;55759;51.586;-1.758;2023-12-07T13:55:11;6.90;91.00
52245;DHT22;55759;51.586;-1.758;2023-12-07T13:57:48;6.80;90.90
52245;DHT22;55759;51.586;-1.758;2023-12-07T14:00:18;6.80;91.10
52245;DHT22;55759;51.586;-1.758;2023-12-07T14:02:45;6.70;91.20
52245;DHT22;55759;51.586;-1.758;2023-12-07T14:05:11;6.60;91.40
52245;DHT22;55759;51.586;-1.758;2023-12-07T14:07:36;6.60;91.60
52245;DHT22;55759;51.586;-1.758;2023-12-07T14:10:02;6.60;91.70
52245;DHT22;55759;51.586;-1.758;2023-12-07T14:12:31;6.60;91.80
52245;DHT22;55759;51.586;-1.758;2023-12-07T14:15:04;6.60;91.90
52245;DHT22;55759;51.586;-1.758;2023-12-07T14:17:30;6.50;91.90
52245;DHT22;55759;51.586;-1.758;2023-12-07T14:29:21;6.60;92.20
52245;DHT22;55759;51.586;-1.758;2023-12-07T14:31:58;6.60;92.20
52245;DHT22;55759;51.586;-1.758;2023-12-07T14:34:24;6.50;92.20
52245;DHT22;55759;51.586;-1.758;2023-12-07T14:36:52;6.60;92.40
52245;DHT22;55759;51.586;-1.758;2023-12-07T14:39:20;6.60;92.40
52245;DHT22;55759;51.586;-1.758;2023-12-07T14:45:02;6.60;92.50
52245;DHT22;55759;51.586;-1.758;2023-12-07T14:47:50;6.70;92.50
52245;DHT22;55759;51.586;-1.758;2023-12-07T14:53:37;6.60;92.50
52245;DHT22;55759;51.586;-1.758;2023-12-07T14:56:27;6.70;92.60
52245;DHT22;55759;51.586;-1.758;2023-12-07T14:59:15;6.70;92.60
52245;DHT22;55759;51.586;-1.758;2023-12-07T15:04:51;6.70;92.70
52245;DHT22;55759;51.586;-1.758;2023-12-07T15:07:36;6.70;92.70
52245;DHT22;55759;51.586;-1.758;2023-12-07T15:10:08;6.70;92.70
52245;DHT22;55759;51.586;-1.758;2023-12-07T15:12:41;6.70;92.70
52245;DHT22;55759;51.586;-1.758;2023-12-07T15:31:13;6.80;92.80
52245;DHT22;55759;51.586;-1.758;2023-12-07T15:40:21;6.90;92.90
52245;DHT22;55759;51.586;-1.758;2023-12-07T15:43:00;6.90;92.90
52245;DHT22;55759;51.586;-1.758;2023-12-07T15:45:51;6.90;92.90
52245;DHT22;55759;51.586;-1.758;2023-12-07T15:48:21;6.90;92.90
52245;DHT22;55759;51.586;-1.758;2023-12-07T15:54:03;7.00;93.00
52245;DHT22;55759;51.586;-1.758;2023-12-07T16:06:12;7.00;93.20
52245;DHT22;55759;51.586;-1.758;2023-12-07T16:09:03;7.00;93.30
52245;DHT22;55759;51.586;-1.758;2023-12-07T16:20:57;7.10;93.40
52245;DHT22;55759;51.586;-1.758;2023-12-07T16:23:39;7.10;93.30
52245;DHT22;55759;51.586;-1.758;2023-12-07T16:26:17;7.20;93.40
52245;DHT22;55759;51.586;-1.758;2023-12-07T16:32:17;7.20;93.40
52245;DHT22;55759;51.586;-1.758;2023-12-07T16:50:42;7.40;93.60
52245;DHT22;55759;51.586;-1.758;2023-12-07T16:53:07;7.40;93.60
52245;DHT22;55759;51.586;-1.758;2023-12-07T16:55:39;7.40;93.60
52245;DHT22;55759;51.586;-1.758;2023-12-07T17:01:39;7.50;93.60
52245;DHT22;55759;51.586;-1.758;2023-12-07T17:04:15;7.50;93.60
52245;DHT22;55759;51.586;-1.758;2023-12-07T17:06:43;7.50;93.70
52245;DHT22;55759;51.586;-1.758;2023-12-07T17:15:24;7.60;93.80
52245;DHT22;55759;51.586;-1.758;2023-12-07T17:18:09;7.60;93.80
52245;DHT22;55759;51.586;-1.758;2023-12-07T17:33:23;7.70;93.80
52245;DHT22;55759;51.586;-1.758;2023-12-07T17:38:52;7.80;93.90
52245;DHT22;55759;51.586;-1.758;2023-12-07T17:41:37;7.80;93.90
52245;DHT22;55759;51.586;-1.758;2023-12-07T17:50:41;7.80;93.90
52245;DHT22;55759;51.586;-1.758;2023-12-07T17:53:12;7.80;93.90
52245;DHT22;55759;51.586;-1.758;2023-12-07T17:55:40;7.80;93.90
52245;DHT22;55759;51.586;-1.758;2023-12-07T17:58:05;7.90;94.00
52245;DHT22;55759;51.586;-1.758;2023-12-07T18:00:41;7.90;94.00
52245;DHT22;55759;51.586;-1.758;2023-12-07T18:03:07;7.90;94.00
52245;DHT22;55759;51.586;-1.758;2023-12-07T18:05:36;7.90;94.00
52245;DHT22;55759;51.586;-1.758;2023-12-07T18:08:01;7.90;94.00
52245;DHT22;55759;51.586;-1.758;2023-12-07T18:10:29;7.90;94.00
52245;DHT22;55759;51.586;-1.758;2023-12-07T18:12:55;8.00;94.00
52245;DHT22;55759;51.586;-1.758;2023-12-07T18:15:23;8.00;94.10
52245;DHT22;55759;51.586;-1.758;2023-12-07T18:17:51;8.00;94.10
52245;DHT22;55759;51.586;-1.758;2023-12-07T18:20:17;8.00;94.10
52245;DHT22;55759;51.586;-1.758;2023-12-07T18:22:42;8.10;94.10
52245;DHT22;55759;51.586;-1.758;2023-12-07T18:25:11;8.10;94.10
52245;DHT22;55759;51.586;-1.758;2023-12-07T18:27:37;8.10;94.10
52245;DHT22;55759;51.586;-1.758;2023-12-07T18:30:12;8.10;94.10
52245;DHT22;55759;51.586;-1.758;2023-12-07T18:32:41;8.20;94.10
52245;DHT22;55759;51.586;-1.758;2023-12-07T18:35:15;8.20;94.10
52245;DHT22;55759;51.586;-1.758;2023-12-07T18:37:41;8.20;94.10
52245;DHT22;55759;51.586;-1.758;2023-12-07T18:40:12;8.30;94.10
52245;DHT22;55759;51.586;-1.758;2023-12-07T18:45:58;8.30;94.00
52245;DHT22;55759;51.586;-1.758;2023-12-07T18:48:34;8.20;94.00
52245;DHT22;55759;51.586;-1.758;2023-12-07T18:54:11;8.20;94.00
52245;DHT22;55759;51.586;-1.758;2023-12-07T18:56:56;8.30;94.00
52245;DHT22;55759;51.586;-1.758;2023-12-07T18:59:37;8.20;93.90
52245;DHT22;55759;51.586;-1.758;2023-12-07T19:05:22;8.20;94.00
52245;DHT22;55759;51.586;-1.758;2023-12-07T19:11:22;8.40;94.00
52245;DHT22;55759;51.586;-1.758;2023-12-07T19:13:48;8.30;94.00
52245;DHT22;55759;51.586;-1.758;2023-12-07T19:19:46;8.40;94.00
52245;DHT22;55759;51.586;-1.758;2023-12-07T19:22:19;8.40;93.90
52245;DHT22;55759;51.586;-1.758;2023-12-07T19:25:03;8.40;93.90
52245;DHT22;55759;51.586;-1.758;2023-12-07T19:37:06;8.60;93.90
52245;DHT22;55759;51.586;-1.758;2023-12-07T19:39:39;8.70;94.00
52245;DHT22;55759;51.586;-1.758;2023-12-07T19:42:23;8.70;93.90
52245;DHT22;55759;51.586;-1.758;2023-12-07T19:47:59;8.80;93.90
52245;DHT22;55759;51.586;-1.758;2023-12-07T19:53:30;8.90;93.90
52245;DHT22;55759;51.586;-1.758;2023-12-07T20:34:33;9.00;93.80
52245;DHT22;55759;51.586;-1.758;2023-12-07T20:37:19;9.10;93.80
52245;DHT22;55759;51.586;-1.758;2023-12-07T20:40:14;9.10;93.80
52245;DHT22;55759;51.586;-1.758;2023-12-07T20:46:07;9.10;93.70
52245;DHT22;55759;51.586;-1.758;2023-12-07T20:48:43;9.10;93.60
52245;DHT22;55759;51.586;-1.758;2023-12-07T20:54:40;9.10;93.40
52245;DHT22;55759;51.586;-1.758;2023-12-07T21:18:30;8.90;93.30
52245;DHT22;55759;51.586;-1.758;2023-12-07T21:24:16;8.90;93.40
52245;DHT22;55759;51.586;-1.758;2023-12-07T21:26:56;8.90;93.40
52245;DHT22;55759;51.586;-1.758;2023-12-07T21:32:55;8.90;93.50
52245;DHT22;55759;51.586;-1.758;2023-12-07T21:38:24;8.80;93.50
52245;DHT22;55759;51.586;-1.758;2023-12-07T21:41:26;8.80;93.50
52245;DHT22;55759;51.586;-1.758;2023-12-07T21:44:20;8.80;93.50
52245;DHT22;55759;51.586;-1.758;2023-12-07T21:46:48;8.70;93.50
52245;DHT22;55759;51.586;-1.758;2023-12-07T21:49:41;8.60;93.40
52245;DHT22;55759;51.586;-1.758;2023-12-07T21:52:27;8.60;93.50
52245;DHT22;55759;51.586;-1.758;2023-12-07T22:04:46;8.60;93.50
52245;DHT22;55759;51.586;-1.758;2023-12-07T22:08:31;8.60;93.50
52245;DHT22;55759;51.586;-1.758;2023-12-07T22:17:16;8.60;93.60
52245;DHT22;55759;51.586;-1.758;2023-12-07T22:23:15;8.60;93.60
52245;DHT22;55759;51.586;-1.758;2023-12-07T22:26:01;8.50;93.70
52245;DHT22;55759;51.586;-1.758;2023-12-07T23:16:20;8.40;93.70
52245;DHT22;55759;51.586;-1.758;2023-12-07T23:18:48;8.40;93.70
52245;DHT22;55759;51.586;-1.758;2023-12-07T23:21:16;8.30;93.60
52245;DHT22;55759;51.586;-1.758;2023-12-07T23:23:50;8.30;93.60
52245;DHT22;55759;51.586;-1.758;2023-12-07T23:26:25;8.20;93.60
52245;DHT22;55759;51.586;-1.758;2023-12-07T23:29:00;8.30;93.60
52245;DHT22;55759;51.586;-1.758;2023-12-07T23:37:07;8.10;93.60
52245;DHT22;55759;51.586;-1.758;2023-12-07T23:42:57;8.10;93.60
52245;DHT22;55759;51.586;-1.758;2023-12-07T23:45:25;8.00;93.50
52245;DHT22;55759;51.586;-1.758;2023-12-07T23:57:48;8.00;93.70
